Time;durP1;ratioP1;P1;durP2;ratioP2;P2;SDS_P1;SDS_P2;PMS_P1;PMS_P2;Temp;Humidity;BMP_temperature;BMP_pressure;BME280_temperature;BME280_humidity;BME280_pressure;Samples;Min_cycle;Max_cycle;Signal;HPM_P1;HPM_P2
2023/05/14 00:00:19;;;;;;;79.23;51.77;;;13.60;99.90;;;;;;5076096;28;20169;-70
2023/05/14 00:02:45;;;;;;;83.07;51.63;;;13.60;99.90;;;;;;5075955;28;20247;-72
2023/05/14 00:05:10;;;;;;;89.07;51.73;;;13.60;99.90;;;;;;5075977;28;20271;-70
2023/05/14 00:07:36;;;;;;;83.70;50.40;;;13.60;99.90;;;;;;5075490;28;20176;-69
2023/05/14 00:10:02;;;;;;;76.13;51.00;;;13.60;99.90;;;;;;5075967;28;20666;-71
2023/05/14 00:12:28;;;;;;;78.80;51.80;;;13.60;99.90;;;;;;5075441;28;20633;-72
2023/05/14 00:14:54;;;;;;;78.40;52.77;;;13.50;99.90;;;;;;5075698;28;20203;-71
2023/05/14 00:17:20;;;;;;;84.07;52.30;;;13.60;99.90;;;;;;5075713;28;20578;-70
2023/05/14 00:19:46;;;;;;;83.00;53.07;;;13.60;99.90;;;;;;5075537;28;20169;-72
2023/05/14 00:22:12;;;;;;;80.63;51.27;;;13.60;99.90;;;;;;5075305;28;20244;-71
2023/05/14 00:24:37;;;;;;;84.57;53.00;;;13.60;99.90;;;;;;5075702;28;20259;-71
2023/05/14 00:27:03;;;;;;;85.13;51.53;;;13.60;99.90;;;;;;5075685;28;20204;-71
2023/05/14 00:29:29;;;;;;;83.10;51.17;;;13.60;99.90;;;;;;5075588;28;20173;-71
2023/05/14 00:31:55;;;;;;;86.63;52.60;;;13.50;99.90;;;;;;5075981;28;20180;-72
2023/05/14 00:34:20;;;;;;;89.60;52.27;;;13.50;99.90;;;;;;5075450;28;20636;-70
2023/05/14 00:36:46;;;;;;;83.23;53.47;;;13.50;99.90;;;;;;5075083;28;20173;-71
2023/05/14 00:39:13;;;;;;;88.37;51.83;;;13.50;99.90;;;;;;5075265;28;20357;-70
2023/05/14 00:41:38;;;;;;;82.80;51.47;;;13.60;99.90;;;;;;5075321;28;20176;-70
2023/05/14 00:44:04;;;;;;;81.67;52.47;;;13.60;99.90;;;;;;5075263;28;20179;-71
2023/05/14 00:46:30;;;;;;;82.43;52.27;;;13.70;99.90;;;;;;5075343;28;20173;-71
2023/05/14 00:48:57;;;;;;;91.03;53.37;;;13.70;99.90;;;;;;5075187;28;20179;-70
2023/05/14 00:51:23;;;;;;;88.23;52.60;;;13.80;99.90;;;;;;5074705;28;20165;-71
2023/05/14 00:53:49;;;;;;;86.43;52.03;;;13.70;99.90;;;;;;5075184;28;20185;-71
2023/05/14 00:56:16;;;;;;;86.30;52.80;;;13.70;99.90;;;;;;5075084;28;20172;-69
2023/05/14 00:58:42;;;;;;;88.90;54.70;;;13.70;99.90;;;;;;5074881;28;20299;-70
2023/05/14 01:01:08;;;;;;;85.20;54.20;;;13.70;99.90;;;;;;5074975;28;20207;-71
2023/05/14 01:03:34;;;;;;;91.90;54.00;;;13.70;99.90;;;;;;5074852;28;20175;-72
2023/05/14 01:06:07;;;;;;;94.03;54.00;;;13.70;99.90;;;;;;5074307;28;20183;-70
2023/05/14 01:08:38;;;;;;;88.93;53.70;;;13.70;99.90;;;;;;5074740;28;20525;-71
2023/05/14 01:11:11;;;;;;;86.70;52.70;;;13.80;99.90;;;;;;5075071;28;20165;-71
2023/05/14 01:13:47;;;;;;;98.80;53.90;;;13.70;99.90;;;;;;5074662;28;20194;-71
2023/05/14 01:16:17;;;;;;;89.83;52.70;;;13.70;99.90;;;;;;5074526;28;20175;-71
2023/05/14 01:18:45;;;;;;;93.20;54.57;;;13.70;99.90;;;;;;5074164;28;20219;-71
2023/05/14 01:21:37;;;;;;;87.87;51.80;;;13.70;99.90;;;;;;5074044;28;20224;-70
2023/05/14 01:24:03;;;;;;;88.50;54.80;;;13.70;99.90;;;;;;5073836;28;20226;-70
2023/05/14 01:26:30;;;;;;;88.40;53.70;;;13.70;99.90;;;;;;5074328;28;20180;-72
2023/05/14 01:29:09;;;;;;;87.33;53.60;;;13.80;99.90;;;;;;5074097;28;20168;-70
2023/05/14 01:31:39;;;;;;;92.17;53.17;;;13.80;99.90;;;;;;5056404;28;20191;-71
2023/05/14 01:34:05;;;;;;;95.70;54.27;;;13.70;99.90;;;;;;5073959;28;20201;-71
2023/05/14 01:36:32;;;;;;;92.50;54.73;;;13.70;99.90;;;;;;5074287;28;20191;-71
2023/05/14 01:38:59;;;;;;;90.17;55.40;;;13.60;99.90;;;;;;5074642;28;20216;-70
2023/05/14 01:41:26;;;;;;;100.50;57.47;;;13.50;99.90;;;;;;5074019;28;20245;-70
2023/05/14 01:43:51;;;;;;;97.77;57.40;;;13.60;99.90;;;;;;5074224;28;20176;-69
2023/05/14 01:46:20;;;;;;;92.77;56.20;;;13.50;99.90;;;;;;5074137;28;20164;-70
2023/05/14 01:48:46;;;;;;;97.03;55.57;;;13.60;99.90;;;;;;5073544;28;20553;-71
2023/05/14 01:51:13;;;;;;;88.97;54.47;;;13.60;99.90;;;;;;5074020;28;20175;-70
2023/05/14 01:53:39;;;;;;;95.03;55.83;;;13.60;99.90;;;;;;5073672;28;20189;-71
2023/05/14 01:56:05;;;;;;;91.23;54.70;;;13.60;99.90;;;;;;5073956;28;20698;-71
2023/05/14 01:58:30;;;;;;;93.93;54.70;;;13.50;99.90;;;;;;5073692;28;20216;-71
2023/05/14 02:00:56;;;;;;;91.83;55.80;;;13.50;99.90;;;;;;5073692;28;20210;-70
2023/05/14 02:03:21;;;;;;;91.47;56.03;;;13.50;99.90;;;;;;5073277;28;20169;-72
2023/05/14 02:05:47;;;;;;;91.33;53.73;;;13.60;99.90;;;;;;5073892;28;20172;-71
2023/05/14 02:08:13;;;;;;;88.50;54.37;;;13.60;99.90;;;;;;5073777;28;20202;-71
2023/05/14 02:10:38;;;;;;;87.50;53.33;;;13.60;99.90;;;;;;5073669;28;20608;-70
2023/05/14 02:13:04;;;;;;;91.93;54.77;;;13.70;99.90;;;;;;5073797;28;20188;-71
2023/05/14 02:15:29;;;;;;;96.43;52.80;;;13.60;99.90;;;;;;5073524;28;20172;-71
2023/05/14 02:17:55;;;;;;;88.57;52.67;;;13.50;99.90;;;;;;5073052;28;20219;-71
2023/05/14 02:20:20;;;;;;;92.73;53.97;;;13.50;99.90;;;;;;5073396;28;20220;-71
2023/05/14 02:22:46;;;;;;;97.00;53.87;;;13.50;99.90;;;;;;5073333;28;20260;-69
2023/05/14 02:25:12;;;;;;;92.50;51.77;;;13.60;99.90;;;;;;5073269;28;20172;-70
2023/05/14 02:27:39;;;;;;;87.13;53.47;;;13.60;99.90;;;;;;5073106;28;20230;-71
2023/05/14 02:30:05;;;;;;;91.83;52.13;;;13.60;99.90;;;;;;5073647;28;20610;-71
2023/05/14 02:32:31;;;;;;;84.83;52.50;;;13.60;99.90;;;;;;5073134;28;20177;-70
2023/05/14 02:34:56;;;;;;;90.87;54.10;;;13.60;99.90;;;;;;5072507;28;20175;-71
2023/05/14 02:37:22;;;;;;;86.77;52.00;;;13.60;99.90;;;;;;5073230;28;20168;-71
2023/05/14 02:39:48;;;;;;;92.23;52.40;;;13.60;99.90;;;;;;5073286;28;20187;-72
2023/05/14 02:42:13;;;;;;;88.10;53.57;;;13.60;99.90;;;;;;5073074;28;20168;-72
2023/05/14 02:44:39;;;;;;;87.80;52.00;;;13.60;99.90;;;;;;5073148;28;20164;-71
2023/05/14 02:47:05;;;;;;;89.97;52.90;;;13.70;99.90;;;;;;5073041;28;20202;-71
2023/05/14 02:49:31;;;;;;;84.53;52.20;;;13.70;99.90;;;;;;5073245;28;20690;-72
2023/05/14 02:51:57;;;;;;;88.93;51.27;;;13.50;99.90;;;;;;5073007;28;20173;-70
2023/05/14 02:54:22;;;;;;;91.33;54.13;;;13.50;99.90;;;;;;5072811;28;20666;-72
2023/05/14 02:56:48;;;;;;;92.80;52.97;;;13.50;99.90;;;;;;5073109;28;20200;-71
2023/05/14 02:59:14;;;;;;;92.03;52.43;;;13.50;99.90;;;;;;5072856;28;20294;-71
2023/05/14 03:01:40;;;;;;;87.73;53.07;;;13.40;99.90;;;;;;5072540;28;20260;-71
2023/05/14 03:04:06;;;;;;;91.57;54.83;;;13.50;99.90;;;;;;5072814;28;20184;-71
2023/05/14 03:06:32;;;;;;;85.97;51.23;;;13.50;99.90;;;;;;5072943;28;20522;-71
2023/05/14 03:08:57;;;;;;;88.87;52.53;;;13.50;99.90;;;;;;5072811;28;20169;-71
2023/05/14 03:11:23;;;;;;;88.80;51.13;;;13.50;99.90;;;;;;5072593;28;20200;-71
2023/05/14 03:13:48;;;;;;;85.53;51.83;;;13.50;99.90;;;;;;5072848;28;20645;-71
2023/05/14 03:16:14;;;;;;;94.63;53.63;;;13.50;99.90;;;;;;5072678;28;20175;-70
2023/05/14 03:18:40;;;;;;;91.07;54.03;;;13.60;99.90;;;;;;5072750;28;20299;-71
2023/05/14 03:21:07;;;;;;;93.07;54.27;;;13.60;99.90;;;;;;5072533;28;20220;-71
2023/05/14 03:23:33;;;;;;;93.80;53.23;;;13.60;99.90;;;;;;5072716;28;20180;-71
2023/05/14 03:26:00;;;;;;;88.90;52.50;;;13.60;99.90;;;;;;5072816;28;20169;-70
2023/05/14 03:28:25;;;;;;;87.77;53.97;;;13.60;99.90;;;;;;5072682;28;20207;-71
2023/05/14 03:30:51;;;;;;;85.37;52.60;;;13.70;99.90;;;;;;5072614;28;20199;-71
2023/05/14 03:33:17;;;;;;;84.90;52.63;;;13.70;99.90;;;;;;5072554;28;20173;-70
2023/05/14 03:35:42;;;;;;;90.33;53.80;;;13.70;99.90;;;;;;5072441;28;20179;-70
2023/05/14 03:38:08;;;;;;;89.60;52.77;;;13.70;99.90;;;;;;5072574;28;20250;-70
2023/05/14 03:40:34;;;;;;;91.37;53.47;;;13.70;99.90;;;;;;5072447;28;20168;-69
2023/05/14 03:42:59;;;;;;;93.10;54.23;;;13.70;99.90;;;;;;5072511;28;20169;-69
2023/05/14 03:45:27;;;;;;;95.00;54.10;;;13.60;99.90;;;;;;5072483;28;20181;-70
2023/05/14 03:47:53;;;;;;;92.00;53.40;;;13.70;99.90;;;;;;5076139;28;20250;-70
2023/05/14 03:50:18;;;;;;;84.83;51.60;;;13.70;99.90;;;;;;5076040;28;20671;-70
2023/05/14 03:52:44;;;;;;;94.10;54.57;;;13.60;99.90;;;;;;5076145;28;20173;-69
2023/05/14 03:55:10;;;;;;;90.13;52.80;;;13.60;99.90;;;;;;5075784;28;20223;-70
2023/05/14 03:57:36;;;;;;;89.80;51.57;;;13.70;99.90;;;;;;5075580;28;20220;-70
2023/05/14 04:00:06;;;;;;;87.90;53.80;;;13.70;99.90;;;;;;5075582;28;20183;-70
2023/05/14 04:02:31;;;;;;;90.07;53.00;;;13.60;99.90;;;;;;5075858;28;20180;-70
2023/05/14 04:04:57;;;;;;;95.90;53.63;;;13.70;99.90;;;;;;5075980;28;20176;-69
2023/05/14 04:07:22;;;;;;;89.27;52.30;;;13.90;99.90;;;;;;5075679;28;20169;-69
2023/05/14 04:09:48;;;;;;;93.83;53.53;;;13.80;99.90;;;;;;5075729;28;20635;-69
2023/05/14 04:12:14;;;;;;;84.53;51.23;;;13.80;99.90;;;;;;5075326;28;20658;-69
2023/05/14 04:14:39;;;;;;;87.17;51.17;;;13.90;99.90;;;;;;5075402;28;20180;-70
2023/05/14 04:17:05;;;;;;;84.77;52.17;;;13.80;99.90;;;;;;5075557;28;20595;-69
2023/05/14 04:19:30;;;;;;;88.47;51.97;;;13.70;99.90;;;;;;5075361;28;20212;-70
2023/05/14 04:21:56;;;;;;;91.40;51.87;;;13.70;99.90;;;;;;5075028;28;20220;-71
2023/05/14 04:24:22;;;;;;;89.60;50.43;;;13.70;99.90;;;;;;5075130;28;20212;-71
2023/05/14 04:26:47;;;;;;;89.27;51.03;;;13.70;99.90;;;;;;5075330;28;20531;-69
2023/05/14 04:29:13;;;;;;;82.23;48.70;;;13.60;99.90;;;;;;5075177;28;20251;-70
2023/05/14 04:31:38;;;;;;;79.70;48.00;;;13.70;99.90;;;;;;5075261;28;20176;-71
2023/05/14 04:34:04;;;;;;;83.37;51.17;;;13.70;99.90;;;;;;5075179;28;20655;-70
2023/05/14 04:36:30;;;;;;;87.03;52.53;;;13.80;99.90;;;;;;5075219;28;20296;-71
2023/05/14 04:38:56;;;;;;;85.00;50.50;;;13.90;99.90;;;;;;5075157;28;20227;-70
2023/05/14 04:41:21;;;;;;;83.47;49.47;;;13.80;99.90;;;;;;5074590;28;20173;-70
2023/05/14 04:43:49;;;;;;;88.67;50.47;;;13.80;99.90;;;;;;5075098;28;20218;-70
2023/05/14 04:46:15;;;;;;;84.07;50.63;;;13.90;99.90;;;;;;5074817;28;20245;-70
2023/05/14 04:48:41;;;;;;;86.43;51.30;;;13.80;99.90;;;;;;5074710;28;20211;-70
2023/05/14 04:51:06;;;;;;;87.93;51.70;;;13.80;99.90;;;;;;5074905;28;20183;-70
2023/05/14 04:53:32;;;;;;;84.53;51.80;;;13.80;99.90;;;;;;5056858;28;20194;-71
2023/05/14 04:55:57;;;;;;;94.83;49.83;;;13.80;99.90;;;;;;5074220;28;20536;-70
2023/05/14 04:58:23;;;;;;;87.67;51.13;;;13.80;99.90;;;;;;5073558;28;20216;-69
2023/05/14 05:00:49;;;;;;;86.53;51.73;;;13.80;99.90;;;;;;5074853;28;20173;-70
2023/05/14 05:03:15;;;;;;;79.40;48.57;;;13.80;99.90;;;;;;5074372;28;20173;-71
2023/05/14 05:05:40;;;;;;;83.43;50.40;;;13.80;99.90;;;;;;5074577;28;21088;-71
2023/05/14 05:08:06;;;;;;;81.20;49.27;;;13.90;99.90;;;;;;5074554;28;20620;-71
2023/05/14 05:10:32;;;;;;;82.63;50.10;;;13.90;99.90;;;;;;5074174;28;20164;-71
2023/05/14 05:12:57;;;;;;;84.17;50.10;;;13.90;99.90;;;;;;5073690;28;20200;-71
2023/05/14 05:15:23;;;;;;;83.27;50.23;;;13.80;99.90;;;;;;5074007;28;20173;-71
2023/05/14 05:17:48;;;;;;;79.47;49.70;;;13.80;99.90;;;;;;5074297;28;20216;-70
2023/05/14 05:20:14;;;;;;;86.13;49.87;;;13.80;99.90;;;;;;5073837;28;20216;-71
2023/05/14 05:22:40;;;;;;;79.13;48.57;;;13.90;99.90;;;;;;5074228;28;20524;-71
2023/05/14 05:25:06;;;;;;;85.17;48.77;;;13.90;99.90;;;;;;5073630;28;20218;-70
2023/05/14 05:27:32;;;;;;;77.93;48.20;;;13.90;99.90;;;;;;5073743;28;20169;-71
2023/05/14 05:30:02;;;;;;;81.40;47.70;;;13.90;99.90;;;;;;5074560;28;20260;-71
2023/05/14 05:32:28;;;;;;;81.50;48.13;;;14.00;99.90;;;;;;5073972;28;20306;-71
2023/05/14 05:34:54;;;;;;;82.13;48.70;;;14.10;99.90;;;;;;5073994;28;20654;-71
2023/05/14 05:37:20;;;;;;;83.10;48.65;;;14.10;99.90;;;;;;5074057;28;20200;-71
2023/05/14 05:39:47;;;;;;;86.00;48.67;;;14.30;99.90;;;;;;5073510;28;20180;-71
2023/05/14 05:42:13;;;;;;;84.67;48.00;;;14.40;99.90;;;;;;5073557;28;20169;-69
2023/05/14 05:44:38;;;;;;;78.33;48.10;;;14.50;99.90;;;;;;5073526;28;20165;-71
2023/05/14 05:47:04;;;;;;;79.60;47.57;;;14.40;99.90;;;;;;5072086;28;20165;-71
2023/05/14 05:49:30;;;;;;;72.43;46.40;;;14.40;99.90;;;;;;5073393;28;20192;-71
2023/05/14 05:51:56;;;;;;;72.43;45.77;;;14.40;99.90;;;;;;5073708;28;20171;-70
2023/05/14 05:54:23;;;;;;;75.20;46.70;;;14.40;99.90;;;;;;5073203;28;20643;-71
2023/05/14 05:56:49;;;;;;;72.87;45.90;;;14.40;99.90;;;;;;5073403;28;20291;-70
2023/05/14 05:59:15;;;;;;;70.10;45.03;;;14.50;99.90;;;;;;5073171;28;20208;-70
2023/05/14 06:01:42;;;;;;;72.87;45.23;;;14.60;99.90;;;;;;5072970;28;20551;-70
2023/05/14 06:04:08;;;;;;;70.67;44.93;;;14.40;99.90;;;;;;5073057;28;20177;-70
2023/05/14 06:06:34;;;;;;;70.07;45.23;;;14.50;99.90;;;;;;5073285;28;20164;-70
2023/05/14 06:09:00;;;;;;;65.90;42.57;;;14.50;99.90;;;;;;5072967;28;20184;-70
2023/05/14 06:11:26;;;;;;;71.30;46.27;;;14.40;99.90;;;;;;5072751;28;20180;-71
2023/05/14 06:13:52;;;;;;;74.53;45.10;;;14.20;99.90;;;;;;5073308;28;20276;-71
2023/05/14 06:16:18;;;;;;;70.23;44.33;;;14.20;99.90;;;;;;5073222;28;20695;-70
2023/05/14 06:18:44;;;;;;;66.43;43.63;;;14.20;99.90;;;;;;5072986;28;20283;-71
2023/05/14 06:21:09;;;;;;;69.87;44.30;;;14.30;99.90;;;;;;5072642;28;20284;-70
2023/05/14 06:23:35;;;;;;;76.23;45.13;;;14.40;99.90;;;;;;5072534;28;20165;-71
2023/05/14 06:26:01;;;;;;;73.13;44.50;;;14.50;99.90;;;;;;5072588;28;20184;-70
2023/05/14 06:28:26;;;;;;;69.03;44.77;;;14.60;99.90;;;;;;5073008;28;20169;-70
2023/05/14 06:30:55;;;;;;;67.53;44.47;;;14.50;99.90;;;;;;5072920;28;20179;-70
2023/05/14 06:33:28;;;;;;;74.00;44.37;;;14.30;99.90;;;;;;5072766;28;20169;-70
2023/05/14 06:35:54;;;;;;;67.40;43.47;;;14.30;99.90;;;;;;5072946;28;20199;-69
2023/05/14 06:38:19;;;;;;;70.30;41.77;;;14.30;99.90;;;;;;5072454;28;20667;-70
2023/05/14 06:40:45;;;;;;;70.90;42.87;;;14.40;99.90;;;;;;5073109;28;20248;-69
2023/05/14 06:43:10;;;;;;;63.33;41.67;;;14.40;99.90;;;;;;5072822;28;20534;-70
2023/05/14 06:45:36;;;;;;;60.83;39.83;;;14.40;99.90;;;;;;5072475;28;20173;-70
2023/05/14 06:48:02;;;;;;;67.80;41.63;;;14.50;99.90;;;;;;5072631;28;20682;-70
2023/05/14 06:50:27;;;;;;;67.20;40.93;;;14.60;99.90;;;;;;5072495;28;20184;-70
2023/05/14 06:52:53;;;;;;;63.90;41.50;;;14.70;99.90;;;;;;5072313;28;20172;-70
2023/05/14 06:55:19;;;;;;;60.13;40.20;;;14.80;99.90;;;;;;5073025;28;20172;-71
2023/05/14 06:57:44;;;;;;;65.37;40.17;;;14.70;99.90;;;;;;5071668;28;20234;-71
2023/05/14 07:00:10;;;;;;;59.10;39.47;;;14.80;99.90;;;;;;5054267;28;20191;-70
2023/05/14 07:02:36;;;;;;;58.40;39.10;;;14.80;99.90;;;;;;5072766;28;20180;-70
2023/05/14 07:05:02;;;;;;;61.77;39.30;;;14.80;99.90;;;;;;5072571;28;20640;-70
2023/05/14 07:07:27;;;;;;;65.67;39.10;;;14.80;99.90;;;;;;5072298;28;20173;-70
2023/05/14 07:09:53;;;;;;;58.33;39.43;;;14.70;99.90;;;;;;5072140;28;20172;-71
2023/05/14 07:12:18;;;;;;;62.20;39.53;;;14.90;99.90;;;;;;5072383;28;20188;-70
2023/05/14 07:14:45;;;;;;;58.30;39.43;;;14.90;99.90;;;;;;5072447;28;20616;-69
2023/05/14 07:17:11;;;;;;;57.77;39.37;;;14.90;99.00;;;;;;5072452;28;20180;-69
2023/05/14 07:19:36;;;;;;;58.90;40.00;;;15.00;99.20;;;;;;5072315;28;20212;-71
2023/05/14 07:22:02;;;;;;;60.17;38.13;;;14.90;99.90;;;;;;5074751;28;20627;-70
2023/05/14 07:24:28;;;;;;;53.90;38.73;;;15.00;99.90;;;;;;5076186;28;20176;-71
2023/05/14 07:26:56;;;;;;;58.87;38.93;;;15.00;97.50;;;;;;5076239;28;20169;-71
2023/05/14 07:29:21;;;;;;;55.33;38.70;;;15.00;97.70;;;;;;5076471;28;20184;-70
2023/05/14 07:31:47;;;;;;;61.03;39.93;;;15.00;99.90;;;;;;5058592;28;20179;-72
2023/05/14 07:34:13;;;;;;;56.43;38.90;;;15.00;98.80;;;;;;5075989;28;20264;-70
2023/05/14 07:36:39;;;;;;;61.53;38.60;;;15.00;99.90;;;;;;5075968;28;20165;-71
2023/05/14 07:39:04;;;;;;;54.07;38.07;;;15.10;99.90;;;;;;5075939;28;20272;-71
2023/05/14 07:41:30;;;;;;;57.23;37.07;;;15.30;99.90;;;;;;5075888;28;20169;-71
2023/05/14 07:43:55;;;;;;;55.43;37.83;;;15.40;95.70;;;;;;5075849;28;20492;-71
2023/05/14 07:46:22;;;;;;;56.10;37.87;;;15.50;94.20;;;;;;5075980;28;20202;-71
2023/05/14 07:48:48;;;;;;;53.20;36.80;;;15.70;91.40;;;;;;5075216;28;20183;-71
2023/05/14 07:51:13;;;;;;;54.00;37.10;;;15.80;85.30;;;;;;5075020;28;20176;-72
2023/05/14 07:53:40;;;;;;;54.83;37.67;;;15.80;79.10;;;;;;5076023;28;20543;-69
2023/05/14 07:56:06;;;;;;;49.27;37.20;;;15.80;74.50;;;;;;5075440;28;20658;-70
2023/05/14 07:58:31;;;;;;;53.87;39.23;;;16.00;72.40;;;;;;5075324;28;20220;-70
2023/05/14 08:00:57;;;;;;;51.80;36.70;;;16.10;61.70;;;;;;5075358;28;20242;-70
2023/05/14 08:03:23;;;;;;;50.73;35.00;;;16.00;66.20;;;;;;5075903;28;20176;-70
2023/05/14 08:05:48;;;;;;;48.70;35.17;;;16.00;67.80;;;;;;5075129;28;20180;-71
2023/05/14 08:08:14;;;;;;;51.47;35.13;;;16.00;68.40;;;;;;5075169;28;20180;-71
2023/05/14 08:10:40;;;;;;;46.47;34.47;;;16.20;67.00;;;;;;5074961;28;20181;-70
2023/05/14 08:13:06;;;;;;;47.17;34.30;;;16.30;54.90;;;;;;5074852;28;20271;-70
2023/05/14 08:15:31;;;;;;;46.77;34.43;;;16.50;53.60;;;;;;5075674;28;20173;-70
2023/05/14 08:18:02;;;;;;;48.93;34.13;;;16.70;42.60;;;;;;5075198;28;20253;-70
2023/05/14 08:20:28;;;;;;;46.33;33.77;;;16.80;39.60;;;;;;5074389;28;20277;-72
2023/05/14 08:22:56;;;;;;;44.33;33.90;;;17.10;32.40;;;;;;5074948;28;20165;-72
2023/05/14 08:25:21;;;;;;;44.93;33.57;;;17.30;24.80;;;;;;5074563;28;20702;-71
2023/05/14 08:27:47;;;;;;;44.03;32.97;;;17.40;20.10;;;;;;5075310;28;20215;-71
2023/05/14 08:30:13;;;;;;;47.10;33.20;;;17.50;19.10;;;;;;5075115;28;20526;-72
2023/05/14 08:32:38;;;;;;;43.25;31.85;;;17.50;18.20;;;;;;5073849;28;20168;-71
2023/05/14 08:35:04;;;;;;;44.53;32.75;;;17.60;16.80;;;;;;5074116;28;20169;-72
2023/05/14 08:37:30;;;;;;;44.63;31.80;;;17.70;13.80;;;;;;5074941;28;20234;-71
2023/05/14 08:39:55;;;;;;;39.25;30.98;;;18.00;9.00;;;;;;5074778;28;20175;-71
2023/05/14 08:42:23;;;;;;;37.78;30.75;;;18.30;1.00;;;;;;5074910;28;20169;-71
2023/05/14 08:44:55;;;;;;;40.38;30.73;;;18.20;1.00;;;;;;5074858;28;20238;-71
2023/05/14 08:47:22;;;;;;;35.08;28.75;;;18.10;1.00;;;;;;5074423;28;20196;-71
2023/05/14 08:49:53;;;;;;;36.83;28.80;;;17.90;1.10;;;;;;5073776;28;20168;-71
2023/05/14 08:52:21;;;;;;;36.22;28.25;;;17.90;1.00;;;;;;5074839;28;20190;-71
2023/05/14 08:54:49;;;;;;;35.63;28.02;;;17.90;1.00;;;;;;5074515;28;20168;-72
2023/05/14 08:57:18;;;;;;;39.22;28.30;;;18.20;1.00;;;;;;5074546;28;20168;-71
2023/05/14 08:59:44;;;;;;;34.70;28.67;;;18.40;1.00;;;;;;5074386;28;20321;-70
2023/05/14 09:02:13;;;;;;;34.35;27.85;;;18.20;1.00;;;;;;5074908;28;20562;-71
2023/05/14 09:04:40;;;;;;;35.92;27.48;;;18.10;1.00;;;;;;5073782;28;20261;-70
2023/05/14 09:07:06;;;;;;;30.30;26.38;;;17.80;1.00;;;;;;5074108;28;20199;-71
2023/05/14 09:09:32;;;;;;;35.88;27.35;;;17.60;6.50;;;;;;5056172;28;20176;-71
2023/05/14 09:11:58;;;;;;;36.22;28.05;;;17.60;4.60;;;;;;5074180;28;20663;-73
2023/05/14 09:14:23;;;;;;;34.13;26.92;;;17.70;5.30;;;;;;5074597;28;20251;-71
2023/05/14 09:16:50;;;;;;;33.33;26.98;;;17.70;1.00;;;;;;5074498;28;20218;-71
2023/05/14 09:19:17;;;;;;;33.60;27.73;;;17.70;4.70;;;;;;5073717;28;20672;-71
2023/05/14 09:21:44;;;;;;;38.50;26.83;;;18.00;1.00;;;;;;5073385;28;20216;-71
2023/05/14 09:24:22;;;;;;;34.63;27.15;;;18.50;1.00;;;;;;5074189;28;20644;-71
2023/05/14 09:26:53;;;;;;;31.95;27.42;;;19.10;1.00;;;;;;5074095;28;20176;-72
2023/05/14 09:29:18;;;;;;;34.92;25.88;;;19.60;1.00;;;;;;5074075;28;20191;-71
2023/05/14 09:31:44;;;;;;;32.22;26.10;;;20.00;1.00;;;;;;5073530;28;20173;-71
2023/05/14 09:34:10;;;;;;;29.42;25.33;;;20.50;1.00;;;;;;5074114;28;20309;-73
2023/05/14 09:36:36;;;;;;;29.00;25.60;;;20.90;1.00;;;;;;5073624;28;20169;-72
2023/05/14 09:39:05;;;;;;;27.92;24.80;;;21.50;1.00;;;;;;5073615;28;20200;-72
2023/05/14 09:41:30;;;;;;;29.63;24.73;;;22.20;1.00;;;;;;5073787;28;20203;-72
2023/05/14 09:43:56;;;;;;;27.65;24.55;;;22.20;1.00;;;;;;5073283;28;20204;-71
2023/05/14 09:46:22;;;;;;;27.50;24.10;;;22.60;1.00;;;;;;5073257;28;20178;-73
2023/05/14 09:48:48;;;;;;;26.30;23.65;;;23.30;99.90;;;;;;5072499;28;20173;-73
2023/05/14 09:51:16;;;;;;;26.38;23.70;;;23.60;1.00;;;;;;5072535;28;20164;-73
2023/05/14 09:53:43;;;;;;;26.08;21.45;;;24.00;1.00;;;;;;5072307;28;20172;-72
2023/05/14 09:56:09;;;;;;;25.65;23.05;;;24.50;99.90;;;;;;5073572;28;20251;-71
2023/05/14 09:58:35;;;;;;;25.17;22.58;;;25.10;99.90;;;;;;5072659;28;20288;-73
2023/05/14 10:01:01;;;;;;;24.77;22.10;;;24.80;29.40;;;;;;5072851;28;20169;-73
2023/05/14 10:03:29;;;;;;;25.15;22.45;;;25.00;99.90;;;;;;5073232;28;20164;-72
2023/05/14 10:06:00;;;;;;;24.10;21.55;;;25.20;1.00;;;;;;5072997;28;20234;-72
2023/05/14 10:08:36;;;;;;;24.60;22.05;;;25.00;1.00;;;;;;5072587;28;20179;-72
2023/05/14 10:11:11;;;;;;;26.27;21.45;;;25.00;99.90;;;;;;5073092;28;20251;-72
2023/05/14 10:13:40;;;;;;;24.45;22.02;;;25.50;99.90;;;;;;5073362;28;20202;-72
2023/05/14 10:16:15;;;;;;;24.15;21.75;;;26.40;82.90;;;;;;5071984;28;20198;-72
2023/05/14 10:18:47;;;;;;;23.52;20.92;;;26.70;1.00;;;;;;5072346;28;20257;-73
2023/05/14 10:21:13;;;;;;;23.63;21.17;;;26.20;99.90;;;;;;5072380;28;20239;-71
2023/05/14 10:23:40;;;;;;;22.80;20.63;;;25.80;99.90;;;;;;5073150;28;20302;-71
2023/05/14 10:26:06;;;;;;;24.30;21.63;;;25.60;99.90;;;;;;5054982;28;20642;-72
2023/05/14 10:28:32;;;;;;;25.75;20.77;;;25.70;1.00;;;;;;5072265;28;20207;-71
2023/05/14 10:31:01;;;;;;;22.33;20.17;;;25.50;1.00;;;;;;5072790;28;20243;-72
2023/05/14 10:33:27;;;;;;;22.73;20.38;;;25.60;1.00;;;;;;5073355;28;20171;-71
2023/05/14 10:36:03;;;;;;;22.23;20.05;;;25.50;55.90;;;;;;5072696;28;20212;-72
2023/05/14 10:38:33;;;;;;;20.38;18.38;;;26.30;1.00;;;;;;5072712;28;20218;-72
2023/05/14 10:41:04;;;;;;;20.00;18.10;;;26.50;99.90;;;;;;5072170;28;20171;-71
2023/05/14 10:43:30;;;;;;;21.08;18.17;;;26.20;99.90;;;;;;5072818;28;20232;-71
2023/05/14 10:45:57;;;;;;;18.95;17.13;;;26.20;99.90;;;;;;5072626;28;20183;-72
2023/05/14 10:48:24;;;;;;;20.55;18.55;;;26.80;99.90;;;;;;5072854;28;20260;-72
2023/05/14 10:50:51;;;;;;;19.50;17.63;;;27.10;99.90;;;;;;5072654;28;20168;-72
2023/05/14 10:53:17;;;;;;;19.70;17.25;;;26.20;99.90;;;;;;5072448;28;20202;-73
2023/05/14 10:55:43;;;;;;;20.15;16.88;;;25.80;1.00;;;;;;5072190;28;20169;-71
2023/05/14 10:58:12;;;;;;;20.52;18.58;;;26.00;99.90;;;;;;5071761;28;20207;-73
2023/05/14 11:00:38;;;;;;;20.10;17.95;;;26.00;1.00;;;;;;5072162;28;20643;-72
2023/05/14 11:03:07;;;;;;;18.63;16.77;;;26.80;1.00;;;;;;5072727;28;20172;-71
2023/05/14 11:05:36;;;;;;;21.75;18.67;;;27.50;1.00;;;;;;5072318;28;20188;-73
2023/05/14 11:08:04;;;;;;;20.10;18.30;;;28.10;1.00;;;;;;5071957;28;20173;-73
2023/05/14 11:10:31;;;;;;;22.98;18.77;;;28.30;99.90;;;;;;5072513;28;20255;-71
2023/05/14 11:12:57;;;;;;;20.95;18.95;;;28.00;1.00;;;;;;5071883;28;20564;-71
2023/05/14 11:15:25;;;;;;;20.63;18.17;;;27.60;1.00;;;;;;5072424;28;20234;-72
2023/05/14 11:17:52;;;;;;;19.73;17.85;;;27.90;1.00;;;;;;5072305;28;20172;-72
2023/05/14 11:20:18;;;;;;;20.17;18.13;;;28.00;1.00;;;;;;5072268;28;20683;-71
2023/05/14 11:22:45;;;;;;;20.67;18.27;;;27.90;1.00;;;;;;5072221;28;20164;-72
2023/05/14 11:25:13;;;;;;;19.45;17.55;;;27.20;13.90;;;;;;5072396;28;20623;-71
2023/05/14 11:27:40;;;;;;;21.33;19.00;;;27.40;1.00;;;;;;5071952;28;20172;-72
2023/05/14 11:30:26;;;;;;;20.23;18.30;;;27.50;1.00;;;;;;5072316;28;20282;-72
2023/05/14 11:32:53;;;;;;;20.63;17.77;;;28.20;99.90;;;;;;5072298;28;20164;-73
2023/05/14 11:35:18;;;;;;;20.77;18.77;;;28.30;99.90;;;;;;5071751;28;20231;-73
2023/05/14 11:37:51;;;;;;;20.23;18.20;;;27.70;99.90;;;;;;5072108;28;20192;-72
2023/05/14 11:40:17;;;;;;;20.05;18.00;;;27.70;1.00;;;;;;5072426;28;20263;-73
2023/05/14 11:42:43;;;;;;;18.92;16.98;;;26.70;99.90;;;;;;5071946;28;20196;-71
2023/05/14 11:45:13;;;;;;;19.70;17.80;;;26.40;1.00;;;;;;5053992;28;20251;-73
2023/05/14 11:47:40;;;;;;;20.60;17.55;;;26.80;1.00;;;;;;5071786;28;20173;-73
2023/05/14 11:50:06;;;;;;;21.20;19.00;;;27.00;99.90;;;;;;5072236;28;20172;-73
2023/05/14 11:52:40;;;;;;;20.05;17.92;;;26.40;99.90;;;;;;5071793;28;20250;-72
2023/05/14 11:55:11;;;;;;;20.90;18.17;;;26.10;1.00;;;;;;5072170;28;20196;-72
2023/05/14 11:57:36;;;;;;;21.40;19.20;;;26.00;1.00;;;;;;5071663;28;20270;-72
2023/05/14 12:00:04;;;;;;;22.88;18.52;;;26.00;1.00;;;;;;5071496;28;20604;-72
2023/05/14 12:02:30;;;;;;;20.27;18.27;;;25.70;99.90;;;;;;5071833;28;20180;-72
2023/05/14 12:04:56;;;;;;;22.38;18.77;;;25.50;99.90;;;;;;5071854;28;20169;-71
2023/05/14 12:07:22;;;;;;;20.08;17.60;;;25.40;99.90;;;;;;5074064;28;20573;-73
2023/05/14 12:09:48;;;;;;;19.88;17.77;;;25.20;99.90;;;;;;5075444;28;20164;-73
2023/05/14 12:12:21;;;;;;;20.73;18.73;;;25.00;1.00;;;;;;5075106;28;20192;-73
2023/05/14 12:14:48;;;;;;;21.20;19.00;;;24.70;1.00;;;;;;5075107;28;20172;-72
2023/05/14 12:17:19;;;;;;;21.38;19.17;;;24.20;99.90;;;;;;5075537;28;20169;-73
2023/05/14 12:19:52;;;;;;;21.98;18.52;;;23.90;1.00;;;;;;5075210;28;20213;-73
2023/05/14 12:22:19;;;;;;;21.67;18.50;;;23.70;99.90;;;;;;5035282;28;20186;-74
2023/05/14 12:24:56;;;;;;;21.50;18.83;;;24.10;1.00;;;;;;5035645;28;20257;-72